Karamay, China
Current Conditions -  °F | °C
As of 7:00 PM on Saturday 25 Oct 2014 (Local Time) from ZWWW Reporting Station
Clear Clear  
Wind Chill: 59°   Ceiling: Unl
Heat Index: 59°   Visibility: 4mi
Dew Point: 45°   Wind: 2mph
Humidity: 59%   Direction: 350°N
Pressure: 30.06"   Gusts: NA
Location:  45.6°N, 84.86°E
Report Text: ZWWW 251100Z 35001MPS 7000 NSC 15/07 Q1018 NOSIG
Loading
Personal Weather Stations






























Interactive Weather Map
Tropical Storm Tracking
New forecast layout! Learn more

10-Day Weather Forecast

Advertisements
Track Severe Weather on mobile